• Join FlightAware (Why Join?)
  • Login
  • US Flag 
01:08PM EDT


 

Airport Tracker/Info


-or-


 

Live Flight TrackerFlight Track Log ✈ UPS1219 ✈ 19-Jul-2013 ✈ KIAD - KSDF

Flight Track Log - Related Links

Times and Time Zones

All times are in EDT time to prevent confusion due to time zone crossing. See the UPS1219 flight status page for this flight to view local times or setup timezone preferences in your user account.

Time Position Orientation Groundspeed Altitude Reporting Facility
EDT Latitude Longitude Course Direction KTS MPH feet Rate Location/Type
10:58PM 38.9210 -77.4790 216° Southwest 178 205 2,800  Level FlightAware
10:58PM 38.9140 -77.4850 214° Southwest 186 214 2,900 360 Climbing FlightAware
10:59PM 38.8890 -77.5100 218° Southwest 237 273 3,100 1,440 Climbing FlightAware
10:59PM 38.8620 -77.5370 218° Southwest 262 302 4,300 3,180 Climbing FlightAware
11:00PM 38.8390 -77.5600 218° Southwest 262 302 6,100 4,200 Climbing FlightAware
11:00PM 38.8300 -77.5870 247° West 264 304 7,400 4,200 Climbing FlightAware
11:01PM 38.8310 -77.6510 271° West 280 322 10,000 2,640 Climbing FlightAware
11:02PM 38.8350 -77.7430 273° West 362 417 11,200 2,040 Climbing FlightAware
11:02PM 38.8380 -77.8130 273° West 374 430 12,900 3,120 Climbing FlightAware
11:03PM 38.8430 -77.9190 273° West 388 447 15,600 3,300 Climbing FlightAware
11:04PM 38.8480 -78.0170 274° West 403 464 17,600 2,880 Climbing FlightAware
11:04PM 38.8520 -78.1270 273° West 422 486 19,600 2,400 Climbing FlightAware
11:05PM 38.8550 -78.2270 272° West 440 506 21,000 2,100 Climbing FlightAware
11:06PM 38.8540 -78.3430 269° West 455 524 22,600 2,220 Climbing FlightAware
11:06PM 38.8500 -78.4630 268° West 463 533 24,300 2,160 Climbing FlightAware
11:07PM 38.8380 -78.5540 260° West 474 545 25,400 2,280 Climbing FlightAware
11:08PM 38.8230 -78.6560 259° West 472 543 27,000 2,520 Climbing FlightAware
11:08PM 38.8000 -78.7870 257° West 468 539 29,000 2,580 Climbing FlightAware
11:09PM 38.7820 -78.8770 256° West 461 531 30,600 2,520 Climbing FlightAware
11:10PM 38.7620 -78.9820 256° West 453 521 32,200 2,100 Climbing FlightAware
11:10PM 38.7400 -79.0940 256° West 451 519 33,600 1,320 Climbing FlightAware
11:11PM 38.7210 -79.1900 256° West 454 522 34,000 300 Climbing FlightAware
11:12PM 38.7030 -79.2810 256° West 449 517 34,000  Level FlightAware
11:12PM 38.6800 -79.3960 256° West 442 509 34,000  Level FlightAware
11:13PM 38.6550 -79.5180 255° West 447 514 34,000  Level FlightAware
11:14PM 38.6360 -79.6150 256° West 450 518 34,000  Level FlightAware
11:15PM 38.6090 -79.7470 255° West 448 516 34,000  Level FlightAware
11:15PM 38.5890 -79.8510 256° West 442 509 34,000  Level FlightAware
11:16PM 38.5680 -79.9520 255° West 438 504 34,000  Level FlightAware
11:17PM 38.5450 -80.0620 255° West 438 504 34,000  Level FlightAware
11:17PM 38.5230 -80.1720 256° West 441 507 34,000  Level FlightAware
11:18PM 38.5080 -80.2450 255° West 442 509 34,000  Level FlightAware
11:19PM 38.4800 -80.3770 255° West 447 514 34,000  Level FlightAware
11:19PM 38.4570 -80.4890 255° West 448 516 34,000  Level FlightAware
11:20PM 38.4280 -80.6250 255° West 450 518 34,000  Level FlightAware
11:21PM 38.4100 -80.7130 255° West 450 518 34,000  Level FlightAware
11:22PM 38.4010 -80.8430 265° West 445 512 34,000  Level FlightAware
11:23PM 38.3870 -80.9600 261° West 442 509 34,000  Level FlightAware
11:23PM 38.3720 -81.0750 261° West 442 509 34,000  Level FlightAware
11:24PM 38.3600 -81.1780 262° West 443 510 34,000  Level FlightAware
11:25PM 38.3460 -81.2820 260° West 446 513 34,000  Level FlightAware
11:25PM 38.3340 -81.3780 261° West 448 516 34,000  Level FlightAware
11:26PM 38.3200 -81.4820 260° West 451 519 34,000  Level FlightAware
11:27PM 38.3050 -81.6000 261° West 454 522 34,000  Level FlightAware
11:27PM 38.2962 -81.6636 260° West 455 524 34,000  Level FlightAware ADS-B
11:28PM 38.2818 -81.7746 261° West 455 524 34,000  Level FlightAware ADS-B
11:28PM 38.2654 -81.8958 260° West 455 524 34,000  Level FlightAware ADS-B
11:29PM 38.2548 -81.9752 260° West 457 526 34,000  Level FlightAware ADS-B
11:30PM 38.2303 -82.1567 260° West 450 518 34,000  Level FlightAware ADS-B
11:31PM 38.2194 -82.2371 260° West 447 514 34,000  Level FlightAware ADS-B
11:31PM 38.2038 -82.3508 260° West 447 514 34,000  Level FlightAware ADS-B
11:32PM 38.1928 -82.4286 260° West 450 518 34,000  Level FlightAware ADS-B
11:32PM 38.1817 -82.5093 260° West 451 519 34,000  Level FlightAware ADS-B
11:33PM 38.1707 -82.5874 260° West 449 517 34,000  Level FlightAware ADS-B
11:33PM 38.1586 -82.6754 260° West 448 516 34,000  Level FlightAware ADS-B
11:34PM 38.1416 -82.7973 260° West 449 517 34,000  Level FlightAware ADS-B
11:35PM 38.1304 -82.8753 260° West 451 519 34,000  Level FlightAware ADS-B
11:36PM 38.1120 -83.0010 259° West 453 521 34,000  Level FlightAware
11:36PM 38.1057 -83.0450 260° West 452 520 34,000  Level FlightAware ADS-B
11:37PM 38.0810 -83.2150 260° West 452 520 34,000  Level FlightAware
11:38PM 38.0690 -83.2990 260° West 451 519 34,000 -180 Level FlightAware
11:38PM 38.0560 -83.3890 260° West 452 520 33,800 -420 Descending FlightAware
11:39PM 38.0350 -83.5290 259° West 450 518 33,400 -1,020 Descending FlightAware
11:40PM 38.0174 -83.6483 259° West 436 502 32,200 -1,440 Descending FlightAware ADS-B
11:40PM 38.0059 -83.7233 259° West 433 498 31,700 -1,020 Descending FlightAware ADS-B
11:41PM 37.9945 -83.8000 259° West 429 494 31,200 -1,020 Descending FlightAware ADS-B
11:41PM 37.9809 -83.8906 259° West 429 494 30,600 -2,340 Descending FlightAware ADS-B
11:42PM 37.9587 -84.0365 259° West 420 483 27,500 -3,300 Descending FlightAware ADS-B
11:43PM 37.9451 -84.1217 259° West 448 516 25,500 -3,420 Descending FlightAware ADS-B
11:43PM 37.9315 -84.2103 259° West 450 518 23,700 -2,880 Descending FlightAware ADS-B
11:47PM 37.8560 -84.6850 259° West 393 452 14,400 -2,700 Descending FlightAware
11:48PM 37.8380 -84.8010 259° West 379 436 12,500 -2,280 Descending FlightAware
11:48PM 37.8260 -84.8700 258° West 369 425 11,400 -1,080 Descending FlightAware
11:49PM 37.8110 -84.9590 258° West 356 410 11,000 -240 Descending FlightAware
11:50PM 37.7930 -85.0630 258° West 356 410 11,000 -660 Level FlightAware
11:51PM 37.7880 -85.1220 264° West 281 323 10,000 -1,080 Descending FlightAware
11:51PM 37.7860 -85.1570 266° West 281 323 10,000 -1,380 Level FlightAware
11:51PM 37.8080 -85.1920 309° West 283 326 9,000 -2,400 Descending FlightAware
11:52PM 37.8220 -85.2320 294° West 283 326 8,200 -1,680 Descending FlightAware
11:52PM 37.8370 -85.2730 295° West 281 323 7,500 -1,500 Descending FlightAware
11:53PM 37.8540 -85.3200 295° West 280 322 6,700 -1,500 Descending FlightAware
11:53PM 37.8710 -85.3660 295° West 271 312 6,000 -1,200 Descending FlightAware
11:53PM 37.8730 -85.3730 290° West 271 312 5,900 -1,380 Descending FlightAware
11:54PM 37.8920 -85.4260 294° West 263 303 5,100 -1,560 Descending FlightAware
11:54PM 37.9050 -85.4630 294° West 259 298 4,400 -1,500 Descending FlightAware
11:55PM 37.9090 -85.4820 285° West 254 292 4,100 -660 Descending FlightAware
11:55PM 37.9050 -85.5150 261° West 250 288 4,000 -540 Descending FlightAware
11:55PM 37.9000 -85.5440 258° West 248 285 3,700 -1,080 Descending FlightAware
11:56PM 37.8950 -85.5750 258° West 248 285 3,200 -780 Descending FlightAware
11:56PM 37.9090 -85.6160 293° West 259 298 3,000 -240 Descending FlightAware
11:57PM 37.9340 -85.6410 322° Northwest 249 287 3,000  Level FlightAware
11:57PM 37.9490 -85.6490 337° Northwest 247 284 3,000  Level FlightAware
11:57PM 37.9740 -85.6600 341° North 226 260 3,000  Level FlightAware
11:58PM 38.0040 -85.6690 347° North 211 243 3,000  Level FlightAware
11:58PM 38.0300 -85.6770 346° North 195 224 3,000 -180 Level FlightAware
11:59PM 38.0390 -85.6800 345° North 199 229 2,900 -900 Descending FlightAware
11:59PM 38.0660 -85.6900 344° North 187 215 2,400 -960 Descending FlightAware
11:59PM 38.0750 -85.6930 345° North 188 216 2,200 -900 Descending FlightAware
12:00AM 38.0980 -85.7010 345° North 168 193 1,800 -900 Descending FlightAware
12:00AM 38.1290 -85.7110 346° North 132 152 1,200 -720 Descending FlightAware
12:01AM 38.1480 -85.7180 344° North 131 151 900 -660 Descending FlightAware
12:01AM 38.1620 -85.7230 344° North 130 150 600 -720 Descending FlightAware
12:02AM 38.1810 -85.7290 346° North 48 55 -900 Descending FlightAware
12:03AM 38.1840 -85.7320 322° Northwest 32 37  Level FlightAware
12:03AM 38.1830 -85.7330 218° Southwest 17 20  Level FlightAware
12:03AM 38.1810 -85.7330 180° South 21 24  Level FlightAware
12:05AM 38.1780 -85.7370 226° Southwest 20 23  Level FlightAware
12:05AM 38.1800 -85.7410 302° West 23 26  Level FlightAware
12:06AM 38.1790 -85.7440 247° West 18 21  Level FlightAware
12:06AM 38.1760 -85.7430 165° South 26 30  Level FlightAware
12:07AM 38.1730 -85.7420 165° South 22 25  Level FlightAware
12:07AM 38.1720 -85.7410 142° Southeast 15 17  Level FlightAware
12:07AM 38.1710 -85.7400 142° Southeast 16 18  Level FlightAware
12:07AM 38.1710 -85.7390 90° East 26 30  Level FlightAware
12:08AM 38.1700 -85.7360 113° Southeast 26 30  Level FlightAware